Time;durP1;ratioP1;P1;durP2;ratioP2;P2;SDS_P1;SDS_P2;PMS_P1;PMS_P2;Temp;Humidity;BMP_temperature;BMP_pressure;BME280_temperature;BME280_humidity;BME280_pressure;Samples;Min_cycle;Max_cycle;Signal;HPM_P1;HPM_P2
2021/07/05 00:02:04;;;;;;;;;11.00;11.00;;;;;24.63;83.05;100010.94;4979281;28;8852;-73
2021/07/05 00:05:00;;;;;;;;;8.40;8.40;;;;;24.77;81.79;100017.44;4966649;28;8856;-76
2021/07/05 00:07:56;;;;;;;;;10.40;10.40;;;;;24.55;84.21;100025.69;4980607;28;8852;-74
2021/07/05 00:10:52;;;;;;;;;11.00;11.00;;;;;24.56;85.25;100027.28;4980192;28;8841;-74
2021/07/05 00:13:47;;;;;;;;;13.80;13.60;;;;;24.80;83.28;100019.38;4979370;28;8867;-74
2021/07/05 00:16:44;;;;;;;;;10.00;10.00;;;;;24.63;84.17;100027.88;4998585;28;8834;-74
2021/07/05 00:19:40;;;;;;;;;13.60;13.60;;;;;24.76;83.26;100027.94;4974622;28;8981;-74
2021/07/05 00:22:36;;;;;;;;;12.40;12.40;;;;;24.95;81.83;100029.06;4947390;28;8874;-74
2021/07/05 00:25:32;;;;;;;;;11.40;11.40;;;;;25.02;81.13;100026.06;4977538;28;9718;-73
2021/07/05 00:28:27;;;;;;;;;10.40;10.40;;;;;25.13;80.71;100026.56;4979911;28;8833;-73
2021/07/05 00:31:23;;;;;;;;;11.00;11.00;;;;;25.19;80.42;100024.78;4981475;28;8848;-74
2021/07/05 00:34:19;;;;;;;;;8.60;8.60;;;;;25.26;80.29;100020.16;4979498;28;8852;-73
2021/07/05 00:37:14;;;;;;;;;11.40;11.40;;;;;25.15;81.12;100014.78;4945188;28;8905;-74
2021/07/05 00:40:11;;;;;;;;;12.00;12.00;;;;;24.81;83.27;99995.50;4956657;28;8889;-74
2021/07/05 00:43:09;;;;;;;;;11.80;11.80;;;;;24.79;83.57;99998.00;4957923;28;8858;-74
2021/07/05 00:46:05;;;;;;;;;16.00;16.00;;;;;24.90;83.76;99996.47;4956869;28;8843;-75
2021/07/05 00:49:01;;;;;;;;;15.60;15.00;;;;;24.75;84.24;99988.81;4968000;28;8973;-74
2021/07/05 00:51:56;;;;;;;;;27.40;26.80;;;;;24.57;85.10;99978.78;4993245;28;8875;-75
2021/07/05 00:54:52;;;;;;;;;30.25;29.75;;;;;24.33;86.73;99957.59;4995253;28;8862;-74
2021/07/05 00:57:48;;;;;;;;;20.80;19.60;;;;;24.36;86.61;99945.41;4995719;28;8843;-75
2021/07/05 01:00:44;;;;;;;;;31.00;30.25;;;;;24.51;87.01;99949.44;4995124;28;8822;-75
2021/07/05 01:03:40;;;;;;;;;20.60;20.60;;;;;24.56;85.72;99948.13;4983670;28;9570;-75
2021/07/05 01:06:36;;;;;;;;;28.25;28.25;;;;;24.74;84.82;99939.94;4976833;28;8861;-75
2021/07/05 01:09:31;;;;;;;;;39.50;35.50;;;;;24.75;85.31;99943.56;4975293;28;8825;-75
2021/07/05 01:12:27;;;;;;;;;49.50;42.50;;;;;24.93;82.65;99944.69;4975687;28;8899;-75
2021/07/05 01:15:26;;;;;;;;;54.25;45.75;;;;;24.86;84.27;99944.09;4979247;28;8870;-75
2021/07/05 01:18:23;;;;;;;;;51.00;43.25;;;;;24.72;84.65;99933.16;4994969;28;8854;-74
2021/07/05 01:21:20;;;;;;;;;54.50;45.75;;;;;24.78;84.46;99937.03;4994753;28;8822;-75
2021/07/05 01:24:15;;;;;;;;;56.25;46.50;;;;;24.60;85.10;99918.50;4995111;28;9556;-74
2021/07/05 01:27:11;;;;;;;;;54.25;45.75;;;;;24.80;83.27;99924.03;4994623;28;8937;-74
2021/07/05 01:30:07;;;;;;;;;54.25;45.75;;;;;24.71;84.71;99915.41;4977888;28;8861;-75
2021/07/05 01:33:06;;;;;;;;;45.50;39.00;;;;;24.92;82.15;99914.81;4968051;28;8877;-75
2021/07/05 01:36:02;;;;;;;;;58.75;48.75;;;;;24.75;84.14;99885.00;4995774;28;8854;-75
2021/07/05 01:38:58;;;;;;;;;57.50;47.75;;;;;24.72;84.15;99876.63;4994348;28;8866;-75
2021/07/05 01:41:54;;;;;;;;;59.50;49.50;;;;;24.55;84.64;99864.59;4995429;28;8843;-75
2021/07/05 01:44:49;;;;;;;;;50.75;43.50;;;;;24.75;83.54;99864.41;4974741;28;8833;-75
2021/07/05 01:47:46;;;;;;;;;54.50;45.75;;;;;24.80;83.92;99858.22;4962613;28;8856;-75
2021/07/05 01:50:41;;;;;;;;;56.50;47.50;;;;;24.69;84.76;99830.25;4974213;28;8856;-75
2021/07/05 01:53:37;;;;;;;;;55.00;45.25;;;;;24.80;84.00;99833.56;4974782;28;8864;-75
2021/07/05 01:56:33;;;;;;;;;57.00;46.75;;;;;24.68;84.86;99839.97;4975321;28;8840;-75
2021/07/05 01:59:29;;;;;;;;;57.75;47.75;;;;;24.80;84.25;99838.41;4981834;28;8852;-75
2021/07/05 02:02:27;;;;;;;;;52.25;43.75;;;;;24.96;82.33;99846.81;4964947;28;8953;-75
2021/07/05 02:05:22;;;;;;;;;52.25;43.50;;;;;25.37;79.24;99867.81;4975056;28;8856;-76
2021/07/05 02:08:19;;;;;;;;;58.75;47.00;;;;;25.53;79.07;99879.03;4974505;28;8868;-75
2021/07/05 02:11:14;;;;;;;;;50.75;43.25;;;;;25.39;80.32;99879.50;4990124;28;8858;-75
2021/07/05 02:14:10;;;;;;;;;60.50;47.75;;;;;25.34;80.08;99871.56;4955867;28;8855;-75
2021/07/05 02:17:09;;;;;;;;;60.75;49.75;;;;;25.18;80.71;99875.28;4955688;28;8878;-75
2021/07/05 02:20:10;;;;;;;;;51.75;43.00;;;;;25.35;79.47;99878.81;4956189;28;8851;-75
2021/07/05 02:23:09;;;;;;;;;55.00;43.75;;;;;25.27;80.08;99866.91;4954938;28;8905;-75
2021/07/05 02:26:06;;;;;;;;;43.75;38.00;;;;;25.11;79.93;99861.34;4989752;28;8843;-75
2021/07/05 02:29:01;;;;;;;;;46.00;39.25;;;;;24.89;80.65;99866.81;4993676;28;8916;-75
2021/07/05 02:31:57;;;;;;;;;42.00;36.00;;;;;24.96;80.59;99869.44;4994668;28;8854;-75
2021/07/05 02:34:52;;;;;;;;;39.75;34.75;;;;;25.05;80.24;99871.63;4980944;28;8862;-75
2021/07/05 02:37:49;;;;;;;;;37.50;33.50;;;;;25.17;80.00;99868.84;4985129;28;8849;-75
2021/07/05 02:40:50;;;;;;;;;40.25;34.75;;;;;25.06;80.09;99871.19;4960761;28;8939;-75
2021/07/05 02:43:54;;;;;;;;;28.00;27.80;;;;;25.25;79.45;99885.59;4973544;28;9845;-74
2021/07/05 02:46:52;;;;;;;;;37.50;33.00;;;;;25.19;79.82;99886.16;4961122;28;8847;-75
2021/07/05 02:49:51;;;;;;;;;48.00;40.50;;;;;25.09;79.90;99890.09;4955099;28;8862;-75
2021/07/05 02:52:47;;;;;;;;;61.50;49.50;;;;;25.19;79.88;99893.84;4954421;28;8905;-74
2021/07/05 02:55:45;;;;;;;;;50.25;42.50;;;;;25.08;80.41;99894.19;4955034;28;8850;-75
2021/07/05 02:58:41;;;;;;;;;57.75;46.25;;;;;25.08;80.33;99882.06;4943116;28;8874;-74
2021/07/05 03:01:36;;;;;;;;;55.00;45.50;;;;;24.95;81.00;99888.44;4953632;28;8843;-75
2021/07/05 03:04:33;;;;;;;;;58.00;47.00;;;;;24.95;80.85;99901.81;4988454;28;8842;-74
2021/07/05 03:07:28;;;;;;;;;49.75;42.25;;;;;24.95;81.28;99887.66;4993926;28;8846;-74
2021/07/05 03:10:27;;;;;;;;;41.50;36.00;;;;;24.89;81.57;99892.28;4992487;28;8940;-75
2021/07/05 03:13:23;;;;;;;;;48.50;39.00;;;;;24.96;81.08;99889.25;4991121;28;8920;-75
2021/07/05 03:16:19;;;;;;;;;46.25;39.25;;;;;24.93;81.67;99876.00;4993978;28;8873;-75
2021/07/05 03:19:14;;;;;;;;;49.00;42.00;;;;;24.90;82.35;99876.88;4991116;28;8984;-75
2021/07/05 03:22:10;;;;;;;;;46.50;39.00;;;;;25.00;81.65;99881.47;4992846;28;8870;-74
2021/07/05 03:25:10;;;;;;;;;49.75;39.75;;;;;25.07;81.27;99880.47;4992658;28;9682;-75
2021/07/05 03:28:08;;;;;;;;;40.50;36.00;;;;;24.90;82.15;99869.19;4992521;28;8850;-75
2021/07/05 03:31:04;;;;;;;;;34.00;31.75;;;;;24.83;82.39;99868.63;4993913;28;8850;-74
2021/07/05 03:33:59;;;;;;;;;43.75;36.50;;;;;24.99;81.87;99868.53;4981285;28;8864;-75
2021/07/05 03:36:56;;;;;;;;;37.25;34.00;;;;;25.02;81.48;99873.31;4992146;28;8858;-74
2021/07/05 03:39:52;;;;;;;;;49.25;41.00;;;;;25.10;81.87;99871.88;4992538;28;8839;-74
2021/07/05 03:42:49;;;;;;;;;41.00;36.00;;;;;25.16;81.51;99872.91;4995412;28;8846;-74
2021/07/05 03:45:45;;;;;;;;;33.50;30.25;;;;;25.24;80.84;99873.50;4992378;28;8851;-74
2021/07/05 03:48:40;;;;;;;;;39.60;34.80;;;;;25.31;80.79;99867.63;4992529;28;8835;-75
2021/07/05 03:51:36;;;;;;;;;30.20;29.60;;;;;25.39;80.80;99871.00;4977105;28;8895;-74
2021/07/05 03:54:32;;;;;;;;;27.40;27.40;;;;;25.52;80.10;99868.97;4973401;28;8849;-75
2021/07/05 03:57:28;;;;;;;;;25.80;24.60;;;;;25.57;80.27;99874.06;4960133;28;8860;-74
2021/07/05 04:00:30;;;;;;;;;27.00;27.00;;;;;25.51;79.41;99867.38;4973248;28;8828;-75
2021/07/05 04:03:26;;;;;;;;;27.80;27.80;;;;;25.64;79.88;99864.56;4973496;28;8931;-75
2021/07/05 04:06:22;;;;;;;;;20.40;20.40;;;;;25.59;80.67;99859.44;4974400;28;9578;-76
2021/07/05 04:09:18;;;;;;;;;20.80;20.80;;;;;25.59;80.31;99850.94;4972921;28;9578;-75
2021/07/05 04:12:17;;;;;;;;;19.40;19.40;;;;;25.62;79.44;99862.19;4973678;28;9602;-75
2021/07/05 04:15:13;;;;;;;;;23.20;23.20;;;;;25.63;79.55;99865.81;4975889;28;8867;-74
2021/07/05 04:18:09;;;;;;;;;19.80;19.80;;;;;25.60;79.62;99867.47;4962807;28;9027;-75
2021/07/05 04:21:05;;;;;;;;;20.20;19.40;;;;;25.80;78.30;99855.16;4957907;28;8835;-75
2021/07/05 04:24:00;;;;;;;;;23.80;23.40;;;;;25.88;78.21;99862.16;4982782;28;8844;-74
2021/07/05 04:26:56;;;;;;;;;23.40;23.40;;;;;25.86;79.25;99859.00;4981189;28;8873;-74
2021/07/05 04:29:52;;;;;;;;;18.20;18.20;;;;;25.83;78.64;99849.38;4976255;28;8836;-74
2021/07/05 04:32:49;;;;;;;;;23.60;23.60;;;;;25.77;78.89;99854.84;4958406;28;8858;-73
2021/07/05 04:35:45;;;;;;;;;23.20;23.20;;;;;25.70;78.70;99846.53;4976675;28;8825;-74
2021/07/05 04:38:41;;;;;;;;;25.00;25.00;;;;;25.55;79.39;99844.63;4958373;28;8937;-73
2021/07/05 04:41:36;;;;;;;;;21.40;21.40;;;;;25.41;80.57;99837.38;4938093;29;8881;-75
2021/07/05 04:44:32;;;;;;;;;22.60;22.60;;;;;25.54;80.13;99851.53;4957018;28;8858;-74
2021/07/05 04:47:28;;;;;;;;;22.80;22.80;;;;;25.62;79.84;99853.69;4962145;28;8971;-74
2021/07/05 04:50:24;;;;;;;;;24.00;24.00;;;;;25.71;79.80;99850.97;4956854;28;8859;-75
2021/07/05 04:53:20;;;;;;;;;25.60;25.60;;;;;25.66;79.27;99851.50;4959184;28;8880;-74
2021/07/05 04:56:19;;;;;;;;;24.80;24.80;;;;;25.75;78.85;99862.97;4942500;28;8923;-74
2021/07/05 04:58:50;;;;;;;;;26.00;26.00;;;;;26.04;78.03;99851.47;4964718;28;8942;-74
2021/07/05 05:01:48;;;;;;;;;26.20;26.20;;;;;26.01;78.72;99852.41;4960907;28;8856;-74
2021/07/05 05:04:43;;;;;;;;;26.60;25.80;;;;;25.71;80.09;99859.47;4961971;28;8858;-73
2021/07/05 05:07:39;;;;;;;;;28.00;28.00;;;;;26.00;78.74;99855.69;4957112;28;8987;-74
2021/07/05 05:10:40;;;;;;;;;24.80;24.80;;;;;26.22;77.94;99869.91;4957898;28;8865;-75
2021/07/05 05:13:35;;;;;;;;;28.80;28.80;;;;;25.95;79.19;99859.88;4975302;28;8872;-75
2021/07/05 05:16:31;;;;;;;;;28.20;28.00;;;;;26.12;78.30;99871.06;4976212;28;8829;-75
2021/07/05 05:19:26;;;;;;;;;25.40;25.40;;;;;25.85;78.64;99869.53;4975399;28;8963;-76
2021/07/05 05:22:23;;;;;;;;;25.00;25.00;;;;;26.20;76.82;99870.34;4971845;28;8844;-76
2021/07/05 05:25:19;;;;;;;;;26.60;26.60;;;;;26.12;78.46;99879.56;4962371;28;8952;-74
2021/07/05 05:28:15;;;;;;;;;26.00;25.80;;;;;26.51;76.08;99875.38;4956098;28;9623;-75
2021/07/05 05:31:11;;;;;;;;;28.00;28.00;;;;;26.71;76.13;99883.59;4956338;28;8863;-77
2021/07/05 05:34:06;;;;;;;;;25.00;25.00;;;;;26.42;76.23;99886.66;4957838;28;8945;-75
2021/07/05 05:37:02;;;;;;;;;29.40;29.00;;;;;26.55;76.65;99885.34;4977062;28;8870;-74
2021/07/05 05:39:58;;;;;;;;;27.80;27.80;;;;;26.37;75.98;99890.81;4974485;28;8959;-73
2021/07/05 05:42:56;;;;;;;;;25.20;25.20;;;;;26.58;75.13;99884.44;4963940;28;9678;-74
2021/07/05 05:45:51;;;;;;;;;30.60;29.60;;;;;26.42;76.44;99880.97;4975344;28;9590;-74
2021/07/05 05:48:51;;;;;;;;;30.00;29.40;;;;;26.24;76.69;99881.59;4980317;28;9635;-77
2021/07/05 05:51:48;;;;;;;;;26.00;26.00;;;;;26.61;75.24;99882.72;4957211;28;8869;-76
2021/07/05 05:54:45;;;;;;;;;29.20;28.80;;;;;26.61;75.61;99885.56;4965817;28;8848;-76
2021/07/05 05:57:40;;;;;;;;;28.40;28.40;;;;;26.86;74.57;99885.44;4975652;28;8934;-74
2021/07/05 06:00:36;;;;;;;;;29.60;29.20;;;;;26.64;74.36;99873.28;4974373;28;8849;-75
2021/07/05 06:03:33;;;;;;;;;29.00;28.80;;;;;26.88;73.94;99882.13;4975421;28;8844;-74
2021/07/05 06:06:28;;;;;;;;;30.40;29.60;;;;;26.81;74.48;99882.38;4954699;28;8851;-75
2021/07/05 06:09:24;;;;;;;;;30.20;29.20;;;;;26.72;74.33;99874.63;4945134;28;8835;-75
2021/07/05 06:12:20;;;;;;;;;31.00;30.00;;;;;26.90;74.45;99885.28;4972074;28;8832;-74
2021/07/05 06:15:18;;;;;;;;;28.60;27.60;;;;;27.15;73.34;99887.22;4955949;28;8953;-75
2021/07/05 06:18:15;;;;;;;;;28.40;28.40;;;;;27.13;72.99;99867.81;4969323;28;8854;-75
2021/07/05 06:21:11;;;;;;;;;28.80;28.80;;;;;27.50;73.21;99868.00;4957707;28;8855;-78
2021/07/05 06:24:07;;;;;;;;;28.00;28.00;;;;;27.59;71.01;99875.75;4960788;28;9031;-80
2021/07/05 06:27:03;;;;;;;;;26.20;25.60;;;;;28.00;70.37;99879.41;4956626;28;8873;-79
2021/07/05 06:29:58;;;;;;;;;24.20;24.20;;;;;27.96;69.83;99882.38;4955376;28;8953;-79
2021/07/05 06:32:54;;;;;;;;;22.80;22.80;;;;;28.00;68.76;99894.41;4955310;28;8843;-81
2021/07/05 06:35:50;;;;;;;;;25.20;24.00;;;;;27.80;68.50;99883.44;4957343;28;8855;-82
2021/07/05 06:38:47;;;;;;;;;25.40;25.40;;;;;28.00;68.30;99894.41;4960652;28;9588;-79
2021/07/05 06:41:43;;;;;;;;;21.20;20.60;;;;;28.06;68.60;99891.69;4958260;28;8947;-79
2021/07/05 06:44:39;;;;;;;;;24.00;24.00;;;;;27.58;67.35;99894.84;4956297;28;8839;-78
2021/07/05 06:47:35;;;;;;;;;21.20;21.20;;;;;27.67;68.29;99877.06;4943222;28;8886;-81
2021/07/05 06:50:32;;;;;;;;;22.60;22.60;;;;;28.06;68.33;99889.66;4943212;28;8954;-77
2021/07/05 06:53:28;;;;;;;;;23.40;23.40;;;;;28.29;67.68;99888.25;4929065;28;9673;-81
2021/07/05 06:56:23;;;;;;;;;21.20;21.20;;;;;28.29;68.38;99893.94;4942266;28;8839;-81
2021/07/05 06:59:19;;;;;;;;;24.20;23.60;;;;;28.08;67.86;99895.66;4955133;28;8839;-80
2021/07/05 07:02:16;;;;;;;;;24.80;24.80;;;;;28.30;67.95;99894.78;4955268;28;8937;-79
2021/07/05 07:05:14;;;;;;;;;27.80;27.80;;;;;28.31;67.31;99900.00;4957252;28;8851;-81
2021/07/05 07:08:12;;;;;;;;;25.20;25.20;;;;;28.18;67.84;99897.25;4957029;28;8970;-77
2021/07/05 07:11:07;;;;;;;;;27.20;27.20;;;;;28.19;67.71;99903.72;4955374;28;8862;-79
2021/07/05 07:14:03;;;;;;;;;22.40;22.40;;;;;28.14;68.01;99910.03;4955081;28;8835;-77
2021/07/05 07:20:20;;;;;;;;;23.00;23.00;;;;;27.90;69.30;99913.44;4938767;28;9056;-78
2021/07/05 07:23:16;;;;;;;;;26.00;26.00;;;;;28.03;68.74;99909.69;4955627;28;8855;-77
2021/07/05 07:26:12;;;;;;;;;27.00;26.80;;;;;28.10;68.44;99913.03;4932018;28;8854;-77
2021/07/05 07:29:08;;;;;;;;;19.60;19.60;;;;;28.24;67.40;99917.34;4946502;29;8866;-80
2021/07/05 07:32:04;;;;;;;;;24.20;24.20;;;;;28.40;67.24;99921.97;4975556;28;8884;-78
2021/07/05 07:35:00;;;;;;;;;22.40;22.40;;;;;28.51;67.42;99923.06;4977336;28;8848;-78
2021/07/05 07:37:56;;;;;;;;;21.80;21.80;;;;;28.70;67.08;99909.66;4977438;28;8872;-81
2021/07/05 07:40:54;;;;;;;;;22.00;22.00;;;;;29.14;64.65;99912.16;4963376;28;8853;-77
2021/07/05 07:43:51;;;;;;;;;22.40;22.40;;;;;29.21;63.79;99913.88;4949724;28;8879;-77
2021/07/05 07:46:47;;;;;;;;;15.60;15.60;;;;;29.35;63.00;99918.91;4977265;28;8876;-79
2021/07/05 07:49:42;;;;;;;;;20.60;20.60;;;;;29.32;61.84;99917.03;4977783;28;8861;-78
2021/07/05 07:52:38;;;;;;;;;19.00;19.00;;;;;29.30;62.01;99926.06;4977906;28;8841;-80
2021/07/05 07:55:33;;;;;;;;;16.60;16.40;;;;;29.08;61.83;99934.78;4980136;28;8832;-79
2021/07/05 07:58:29;;;;;;;;;14.40;14.40;;;;;28.92;61.24;99928.66;4977602;28;8864;-79
2021/07/05 08:01:27;;;;;;;;;16.60;16.20;;;;;28.89;62.19;99933.19;4982399;28;8844;-79
2021/07/05 08:04:22;;;;;;;;;15.00;15.00;;;;;28.88;61.02;99940.16;4965291;28;8844;-79
2021/07/05 08:07:18;;;;;;;;;14.20;14.20;;;;;28.95;61.17;99934.16;4979948;28;8892;-79
2021/07/05 08:10:16;;;;;;;;;18.60;18.60;;;;;29.47;60.84;99942.78;4965039;28;8883;-80
2021/07/05 08:13:13;;;;;;;;;15.20;14.60;;;;;29.73;61.19;99938.28;4966222;28;8891;-78
2021/07/05 08:16:09;;;;;;;;;16.40;16.40;;;;;29.85;60.77;99950.75;4977096;28;8837;-79
2021/07/05 08:19:08;;;;;;;;;16.00;16.00;;;;;29.30;62.43;99942.34;4976685;28;8931;-77
2021/07/05 08:22:04;;;;;;;;;17.20;17.20;;;;;28.95;63.62;99945.56;4976692;28;8844;-77
2021/07/05 08:25:01;;;;;;;;;21.60;20.80;;;;;28.73;64.41;99956.28;4977371;28;8840;-79
2021/07/05 08:28:00;;;;;;;;;17.60;17.60;;;;;29.18;63.71;99946.16;4964593;28;8934;-79
2021/07/05 08:30:58;;;;;;;;;18.00;18.00;;;;;29.44;63.30;99940.88;4978397;28;8863;-77
2021/07/05 08:33:56;;;;;;;;;20.40;20.20;;;;;29.65;63.53;99933.41;4964409;28;8863;-78
2021/07/05 08:36:52;;;;;;;;;17.60;17.60;;;;;29.66;62.29;99932.13;4978849;28;8899;-79
2021/07/05 08:39:47;;;;;;;;;16.60;16.60;;;;;29.65;62.16;99936.25;4965300;28;8975;-79
2021/07/05 08:42:43;;;;;;;;;20.80;20.80;;;;;29.78;61.77;99925.44;4952142;28;8848;-78
2021/07/05 08:45:41;;;;;;;;;20.60;20.60;;;;;29.50;62.75;99919.84;4978445;28;9602;-77
2021/07/05 08:48:38;;;;;;;;;20.00;20.00;;;;;29.62;62.32;99918.06;4981306;28;8849;-77
2021/07/05 08:51:34;;;;;;;;;20.20;20.20;;;;;29.83;62.44;99925.56;4963666;28;8848;-78
2021/07/05 08:54:30;;;;;;;;;17.60;17.60;;;;;29.75;61.89;99927.19;4974874;28;8878;-78
2021/07/05 08:57:27;;;;;;;;;20.00;20.00;;;;;29.93;60.66;99917.75;4979885;28;8849;-78
2021/07/05 09:00:28;;;;;;;;;18.60;18.60;;;;;30.05;61.00;99916.72;4977414;28;8864;-78
2021/07/05 09:03:27;;;;;;;;;20.80;20.80;;;;;29.82;60.89;99906.09;4977185;28;8840;-81
2021/07/05 09:06:24;;;;;;;;;20.00;20.00;;;;;29.62;60.42;99900.97;4964131;28;8853;-78
2021/07/05 09:09:21;;;;;;;;;16.40;16.40;;;;;29.54;60.57;99911.91;4979565;28;8877;-77
2021/07/05 09:12:17;;;;;;;;;16.80;16.80;;;;;29.49;60.63;99906.84;4975592;28;8922;-77
2021/07/05 09:15:14;;;;;;;;;20.80;20.80;;;;;29.55;60.84;99910.66;4975756;28;8841;-77
2021/07/05 09:18:32;;;;;;;;;17.00;17.00;;;;;29.37;62.33;99907.84;4975645;28;8967;-78
2021/07/05 09:21:33;;;;;;;;;18.40;18.40;;;;;29.32;63.22;99905.63;4963693;28;9042;-79
2021/07/05 09:24:41;;;;;;;;;17.40;17.40;;;;;29.44;62.56;99895.28;4975038;28;8887;-76
2021/07/05 09:27:37;;;;;;;;;19.60;19.60;;;;;29.39;62.76;99893.91;4975473;28;9626;-77
2021/07/05 09:30:37;;;;;;;;;16.40;16.40;;;;;29.48;61.93;99899.56;4962660;28;8845;-79
2021/07/05 09:33:33;;;;;;;;;18.60;18.60;;;;;29.76;61.44;99894.56;4976193;28;8845;-78
2021/07/05 09:36:30;;;;;;;;;19.20;19.20;;;;;29.76;61.70;99891.72;4976942;28;9589;-78
2021/07/05 09:39:26;;;;;;;;;20.60;20.60;;;;;29.74;62.04;99887.75;4963558;28;8848;-79
2021/07/05 09:42:23;;;;;;;;;21.20;21.20;;;;;30.02;61.82;99894.13;4974539;28;8848;-77
2021/07/05 09:45:22;;;;;;;;;18.60;18.60;;;;;30.09;61.12;99894.56;4975731;28;8844;-77
2021/07/05 09:48:25;;;;;;;;;18.20;18.20;;;;;30.27;61.11;99893.66;4975044;28;8856;-78
2021/07/05 09:51:21;;;;;;;;;13.60;13.60;;;;;30.03;60.97;99887.91;4975025;28;8855;-78
2021/07/05 09:54:24;;;;;;;;;17.80;17.80;;;;;30.39;61.48;99886.13;4976132;28;8868;-78
2021/07/05 09:57:34;;;;;;;;;15.60;15.60;;;;;30.38;62.12;99876.78;4978173;28;8895;-78
2021/07/05 10:00:30;;;;;;;;;14.00;14.00;;;;;30.00;59.19;99871.81;4962417;28;8856;-79
2021/07/05 10:03:36;;;;;;;;;14.20;14.20;;;;;30.71;59.40;99870.97;4965182;28;9589;-77
2021/07/05 10:06:48;;;;;;;;;15.80;15.00;;;;;30.97;57.55;99868.34;4961601;28;8868;-76
2021/07/05 10:09:48;;;;;;;;;16.00;16.00;;;;;31.19;55.53;99870.81;4978130;28;8999;-78
2021/07/05 10:12:56;;;;;;;;;12.40;12.40;;;;;31.50;54.85;99872.38;4976664;28;8844;-76
2021/07/05 10:16:01;;;;;;;;;14.60;14.60;;;;;31.86;53.86;99864.63;4962650;28;8841;-78
2021/07/05 10:18:59;;;;;;;;;11.80;11.80;;;;;32.44;53.28;99871.41;4975696;28;8840;-77
2021/07/05 10:21:55;;;;;;;;;12.80;12.80;;;;;31.51;53.64;99883.31;4975959;28;8876;-77
2021/07/05 10:24:52;;;;;;;;;11.00;11.00;;;;;31.62;53.74;99870.50;4974485;28;8864;-77
2021/07/05 10:27:48;;;;;;;;;17.20;17.20;;;;;31.80;53.72;99865.34;4974621;28;9014;-77
2021/07/05 10:30:52;;;;;;;;;11.20;11.20;;;;;31.49;53.41;99853.66;4975403;28;9680;-80
2021/07/05 10:33:48;;;;;;;;;15.00;15.00;;;;;31.48;55.07;99846.38;4981233;28;8874;-78
2021/07/05 10:36:50;;;;;;;;;11.20;11.20;;;;;31.44;55.00;99848.63;4963417;28;8860;-78
2021/07/05 10:39:49;;;;;;;;;12.00;12.00;;;;;31.60;54.30;99839.56;4977491;28;8846;-77
2021/07/05 10:42:54;;;;;;;;;10.00;10.00;;;;;31.80;54.40;99836.75;4978638;28;8850;-77
2021/07/05 10:45:57;;;;;;;;;16.80;16.80;;;;;31.70;54.70;99849.56;4993301;28;8843;-77
2021/07/05 10:48:52;;;;;;;;;12.80;12.80;;;;;31.52;55.09;99838.41;4980301;28;8921;-78
2021/07/05 10:51:48;;;;;;;;;12.60;12.60;;;;;31.74;54.38;99835.06;4976823;28;8841;-76
2021/07/05 10:54:56;;;;;;;;;13.40;13.40;;;;;31.40;55.48;99845.22;4972216;28;8854;-77
2021/07/05 10:57:55;;;;;;;;;16.00;16.00;;;;;31.43;55.29;99859.28;4975191;28;8955;-78
2021/07/05 11:00:55;;;;;;;;;19.60;19.60;;;;;31.44;54.88;99851.50;4978998;28;8829;-78
2021/07/05 11:03:51;;;;;;;;;19.20;19.20;;;;;31.45;55.27;99845.31;4978217;28;8849;-78
2021/07/05 11:06:48;;;;;;;;;18.40;17.60;;;;;31.35;55.22;99843.81;4975632;28;8864;-77
2021/07/05 11:09:51;;;;;;;;;14.20;14.20;;;;;31.12;54.86;99842.63;4977379;28;8838;-78
2021/07/05 11:13:03;;;;;;;;;16.60;16.60;;;;;30.92;56.03;99828.28;4985346;28;8806;-75
2021/07/05 11:16:01;;;;;;;;;4.40;4.00;;;;;30.58;56.56;99827.63;4965124;28;8938;-78
2021/07/05 11:18:57;;;;;;;;;18.20;17.60;;;;;30.41;56.40;99818.75;4966317;28;8942;-77
2021/07/05 11:21:54;;;;;;;;;15.40;15.40;;;;;30.44;57.11;99823.50;4963446;28;8920;-77
2021/07/05 11:25:00;;;;;;;;;14.80;14.80;;;;;30.24;56.45;99814.00;4978893;28;8853;-76
2021/07/05 11:28:02;;;;;;;;;11.00;11.00;;;;;30.22;56.70;99822.25;4984541;28;9667;-77
2021/07/05 11:31:17;;;;;;;;;15.60;15.60;;;;;30.09;56.45;99829.00;4967917;28;8958;-75
2021/07/05 11:34:25;;;;;;;;;11.20;11.20;;;;;30.03;56.13;99832.97;4942052;28;8867;-75
2021/07/05 11:37:23;;;;;;;;;12.60;12.60;;;;;29.83;56.23;99827.91;4962847;28;8874;-77
2021/07/05 11:40:43;;;;;;;;;10.40;10.40;;;;;30.02;56.01;99823.63;4956641;28;8929;-78
2021/07/05 11:43:49;;;;;;;;;11.80;11.80;;;;;29.85;56.41;99826.13;4993287;28;8865;-77
2021/07/05 11:46:46;;;;;;;;;12.00;12.00;;;;;29.57;55.76;99828.34;4966606;28;8870;-77
2021/07/05 11:49:41;;;;;;;;;11.60;11.60;;;;;29.52;55.83;99823.31;4941147;29;8852;-77
2021/07/05 11:52:38;;;;;;;;;12.60;12.60;;;;;29.44;56.80;99818.41;4957478;28;9589;-77
2021/07/05 11:55:35;;;;;;;;;11.80;11.80;;;;;29.57;56.63;99814.09;4993019;28;8866;-78
2021/07/05 11:58:31;;;;;;;;;15.00;13.80;;;;;29.82;57.00;99821.38;4983721;28;8887;-79
2021/07/05 12:01:29;;;;;;;;;12.40;12.40;;;;;29.54;56.75;99809.38;4973246;28;8880;-79
2021/07/05 12:04:37;;;;;;;;;13.00;13.00;;;;;29.59;57.17;99813.59;4959927;28;8871;-77
2021/07/05 12:07:34;;;;;;;;;11.80;11.80;;;;;29.73;57.28;99814.97;4971063;28;8867;-77
2021/07/05 12:10:32;;;;;;;;;13.20;13.20;;;;;29.84;57.19;99818.06;4973473;28;8951;-78
2021/07/05 12:13:29;;;;;;;;;15.00;13.80;;;;;29.76;56.91;99814.00;4947975;28;8887;-76
2021/07/05 12:16:26;;;;;;;;;16.20;16.20;;;;;29.72;58.43;99817.03;4971453;28;8861;-78
2021/07/05 12:19:24;;;;;;;;;14.40;14.40;;;;;29.76;58.21;99819.72;4954518;29;8827;-77
2021/07/05 12:22:24;;;;;;;;;12.60;12.60;;;;;29.78;58.61;99814.31;4957807;28;8831;-78
2021/07/05 12:25:20;;;;;;;;;13.80;13.80;;;;;29.79;58.38;99808.13;4953579;29;8917;-79
2021/07/05 12:28:15;;;;;;;;;10.80;10.80;;;;;29.50;59.17;99814.44;4941143;29;8880;-75
2021/07/05 12:31:22;;;;;;;;;14.80;14.80;;;;;29.92;59.21;99816.44;4954734;29;8851;-78
2021/07/05 12:34:39;;;;;;;;;14.20;14.00;;;;;30.00;59.29;99811.94;4945266;28;8872;-79
2021/07/05 12:37:36;;;;;;;;;12.00;12.00;;;;;29.54;59.51;99811.44;4985322;28;9553;-77
2021/07/05 12:40:33;;;;;;;;;11.20;11.20;;;;;29.63;59.04;99812.16;4991239;28;8849;-75
2021/07/05 12:43:32;;;;;;;;;14.20;14.20;;;;;29.75;59.17;99806.72;4976756;28;8995;-77
2021/07/05 12:46:28;;;;;;;;;14.60;14.60;;;;;29.65;59.07;99805.19;4983234;28;8886;-78
2021/07/05 12:49:23;;;;;;;;;11.80;11.80;;;;;29.73;59.39;99795.81;4979072;28;8911;-77
2021/07/05 12:52:19;;;;;;;;;13.80;13.80;;;;;30.01;58.88;99795.63;4977444;28;8955;-78
2021/07/05 12:55:17;;;;;;;;;11.20;11.20;;;;;30.13;58.45;99786.81;4970520;28;8881;-77
2021/07/05 12:58:12;;;;;;;;;15.40;15.40;;;;;30.25;57.86;99772.81;4984149;28;8889;-77
2021/07/05 13:01:10;;;;;;;;;14.20;14.20;;;;;30.79;57.55;99774.34;4984146;28;8888;-78
2021/07/05 13:04:13;;;;;;;;;13.20;13.20;;;;;30.85;56.26;99763.03;4973119;28;8855;-78
2021/07/05 13:07:10;;;;;;;;;9.60;9.60;;;;;31.24;54.85;99752.28;4982309;28;8829;-76
2021/07/05 13:10:08;;;;;;;;;13.40;13.40;;;;;31.95;54.32;99755.84;4974314;28;8854;-78
2021/07/05 13:13:10;;;;;;;;;13.20;13.20;;;;;32.32;53.81;99748.25;4974717;28;9675;-78
2021/07/05 13:16:39;;;;;;;;;10.80;10.80;;;;;32.07;52.51;99743.28;4972047;28;8841;-78
2021/07/05 13:19:41;;;;;;;;;12.80;12.80;;;;;32.10;53.75;99725.09;4937840;28;8848;-78
2021/07/05 13:22:52;;;;;;;;;12.00;12.00;;;;;32.41;52.58;99723.63;4974584;28;8861;-78
2021/07/05 13:26:04;;;;;;;;;13.00;13.00;;;;;32.94;51.00;99725.16;4968768;28;8933;-77
2021/07/05 13:29:00;;;;;;;;;12.80;12.80;;;;;33.07;50.91;99723.44;4972026;28;8923;-77
2021/07/05 13:31:57;;;;;;;;;13.20;13.20;;;;;33.11;50.36;99720.34;4977847;28;9000;-76
2021/07/05 13:34:57;;;;;;;;;11.40;11.40;;;;;32.86;49.59;99717.03;4970375;28;8876;-78
2021/07/05 13:37:57;;;;;;;;;10.60;10.60;;;;;32.97;49.57;99716.31;4972715;28;8841;-80
2021/07/05 13:40:27;;;;;;;;;11.00;11.00;;;;;32.96;49.32;99725.44;4928796;28;8855;-77
2021/07/05 13:43:25;;;;;;;;;11.60;11.60;;;;;32.67;49.90;99724.41;4935395;28;8842;-78
2021/07/05 13:46:21;;;;;;;;;9.00;9.00;;;;;32.30;51.55;99727.94;4923971;28;8842;-76
2021/07/05 13:49:17;;;;;;;;;15.40;15.40;;;;;32.23;51.40;99728.38;4924847;29;8853;-76